Time;durP1;ratioP1;P1;durP2;ratioP2;P2;SDS_P1;SDS_P2;PMS_P1;PMS_P2;Temp;Humidity;BMP_temperature;BMP_pressure;BME280_temperature;BME280_humidity;BME280_pressure;Samples;Min_cycle;Max_cycle;Signal;HPM_P1;HPM_P2
2024/01/15 00:00:52;;;;;;;10.50;6.20;;;;;;;-2.80;100.00;150659.69;4970230;28;20453;-81
2024/01/15 00:03:22;;;;;;;10.27;5.50;;;;;;;-2.80;100.00;150659.69;4965096;28;20488;-82
2024/01/15 00:05:48;;;;;;;12.50;6.20;;;;;;;-2.79;100.00;150662.25;4968376;28;20509;-81
2024/01/15 00:08:15;;;;;;;11.87;5.97;;;;;;;-2.79;100.00;150662.25;4969300;28;20891;-82
2024/01/15 00:10:42;;;;;;;10.83;5.13;;;;;;;-2.76;100.00;150669.94;4966838;28;21098;-81
2024/01/15 00:13:08;;;;;;;11.97;5.97;;;;;;;-2.76;100.00;150668.66;4960442;28;20454;-81
2024/01/15 00:15:35;;;;;;;11.13;5.70;;;;;;;-2.77;100.00;150666.09;4965250;28;20445;-82
2024/01/15 00:18:01;;;;;;;10.93;6.10;;;;;;;-2.79;100.00;150662.25;4979901;28;20501;-82
2024/01/15 00:20:29;;;;;;;8.93;6.10;;;;;;;-2.80;100.00;150659.69;4970384;28;20904;-81
2024/01/15 00:22:56;;;;;;;13.10;5.80;;;;;;;-2.81;100.00;150657.16;4959135;28;20458;-82
2024/01/15 00:25:23;;;;;;;11.87;5.80;;;;;;;-2.82;100.00;150653.28;4975459;28;20482;-82
2024/01/15 00:27:50;;;;;;;15.70;6.17;;;;;;;-2.83;100.00;150652.00;4969359;28;20517;-82
2024/01/15 00:30:16;;;;;;;10.63;5.57;;;;;;;-2.85;100.00;150645.59;4969401;28;20443;-82
2024/01/15 00:32:43;;;;;;;8.87;5.60;;;;;;;-2.86;100.00;150644.31;4971146;28;20443;-82
2024/01/15 00:35:09;;;;;;;13.23;6.47;;;;;;;-2.87;100.00;150641.78;4967588;28;20468;-81
2024/01/15 00:37:37;;;;;;;9.10;6.00;;;;;;;-2.89;100.00;150636.69;4976971;28;20497;-81
2024/01/15 00:40:05;;;;;;;7.43;5.00;;;;;;;-2.91;100.00;150631.53;4965037;28;20485;-81
2024/01/15 00:42:32;;;;;;;7.97;5.30;;;;;;;-2.92;100.00;150629.00;4969348;28;20453;-81
2024/01/15 00:44:58;;;;;;;10.80;4.57;;;;;;;-2.92;100.00;150629.00;4964890;28;20534;-81
2024/01/15 00:47:25;;;;;;;10.37;6.13;;;;;;;-2.93;100.00;150626.41;4967562;28;20541;-82
2024/01/15 00:49:52;;;;;;;9.03;5.90;;;;;;;-2.94;100.00;150623.88;4969486;28;20902;-81
2024/01/15 00:52:18;;;;;;;9.43;5.77;;;;;;;-2.95;100.00;150621.31;4950252;28;20454;-81
2024/01/15 00:54:46;;;;;;;9.40;6.60;;;;;;;-2.96;100.00;150617.44;4968386;28;20457;-81
2024/01/15 00:57:13;;;;;;;12.40;6.27;;;;;;;-2.98;100.00;150613.63;4969737;28;20565;-81
2024/01/15 00:59:40;;;;;;;10.50;5.47;;;;;;;-2.99;100.00;150611.03;4966955;28;20474;-81
2024/01/15 01:02:06;;;;;;;12.03;5.37;;;;;;;-3.00;100.00;150608.50;4967027;28;20459;-81
2024/01/15 01:04:33;;;;;;;14.10;5.93;;;;;;;-3.01;100.00;150605.94;4968157;28;20442;-81
2024/01/15 01:07:00;;;;;;;11.30;5.20;;;;;;;-3.00;100.00;150608.50;4967829;28;20818;-81
2024/01/15 01:09:29;;;;;;;8.47;4.40;;;;;;;-3.00;100.00;150608.50;4957291;28;20554;-82
2024/01/15 01:11:56;;;;;;;11.23;6.50;;;;;;;-3.00;100.00;150607.22;4982942;28;20548;-81
2024/01/15 01:14:23;;;;;;;10.97;6.13;;;;;;;-3.00;100.00;150607.22;4965038;28;20513;-81
2024/01/15 01:16:50;;;;;;;9.17;5.30;;;;;;;-3.00;100.00;150608.50;4964788;28;21597;-81
2024/01/15 01:19:16;;;;;;;11.00;6.03;;;;;;;-3.00;100.00;150608.50;4980465;28;20447;-81
2024/01/15 01:21:43;;;;;;;11.13;5.40;;;;;;;-2.98;100.00;150613.63;4967382;28;20463;-81
2024/01/15 01:24:09;;;;;;;13.23;5.90;;;;;;;-2.97;100.00;150616.19;4967203;28;20449;-81
2024/01/15 01:26:36;;;;;;;6.30;4.77;;;;;;;-2.96;100.00;150618.72;4965942;28;20459;-81
2024/01/15 01:29:04;;;;;;;7.40;4.60;;;;;;;-2.92;100.00;150629.00;4966184;28;20445;-82
2024/01/15 01:31:30;;;;;;;9.63;5.83;;;;;;;-2.93;100.00;150626.41;4963197;28;20493;-81
2024/01/15 01:33:57;;;;;;;6.73;5.00;;;;;;;-2.89;100.00;150636.69;4966679;28;20447;-81
2024/01/15 01:36:23;;;;;;;10.63;6.30;;;;;;;-2.86;100.00;150644.31;4965110;28;20461;-81
2024/01/15 01:38:50;;;;;;;12.17;6.67;;;;;;;-2.84;100.00;150649.47;4983961;28;20482;-81
2024/01/15 01:41:16;;;;;;;10.57;5.90;;;;;;;-2.82;100.00;150654.56;4960831;28;21047;-81
2024/01/15 01:43:44;;;;;;;10.23;5.17;;;;;;;-2.82;100.00;150653.28;4963836;28;20451;-82
2024/01/15 01:46:12;;;;;;;12.37;5.87;;;;;;;-2.80;100.00;150659.69;4967190;28;20467;-82
2024/01/15 01:48:39;;;;;;;10.37;5.23;;;;;;;-2.79;100.00;150660.97;4966258;28;20470;-81
2024/01/15 01:51:05;;;;;;;7.37;5.17;;;;;;;-2.77;100.00;150667.38;4958571;28;20751;-81
2024/01/15 01:53:33;;;;;;;8.80;6.00;;;;;;;-2.75;100.00;150672.47;4966246;28;20443;-82
2024/01/15 01:55:59;;;;;;;8.23;5.23;;;;;;;-2.72;100.00;150680.16;4979352;28;20463;-81
2024/01/15 01:58:27;;;;;;;12.30;5.80;;;;;;;-2.72;100.00;150680.16;4965735;28;20482;-81
2024/01/15 02:00:54;;;;;;;9.43;5.20;;;;;;;-2.71;100.00;150682.75;4980194;28;20656;-81
2024/01/15 02:03:22;;;;;;;11.70;5.50;;;;;;;-2.70;100.00;150684.03;4994966;28;20533;-81
2024/01/15 02:05:49;;;;;;;8.40;4.67;;;;;;;-2.68;100.00;150690.44;4965768;28;20473;-81
2024/01/15 02:08:16;;;;;;;7.77;5.00;;;;;;;-2.65;100.00;150696.84;4977945;28;20475;-81
2024/01/15 02:10:43;;;;;;;11.13;5.00;;;;;;;-2.65;100.00;150698.06;4960328;28;20818;-81
2024/01/15 02:13:09;;;;;;;9.93;4.50;;;;;;;-2.64;100.00;150700.66;4959646;28;20470;-80
2024/01/15 02:15:36;;;;;;;9.73;5.23;;;;;;;-2.64;100.00;150700.66;4964904;28;20721;-80
2024/01/15 02:18:04;;;;;;;10.20;4.33;;;;;;;-2.64;100.00;150699.38;4970754;28;20473;-82
2024/01/15 02:20:33;;;;;;;7.50;4.83;;;;;;;-2.64;100.00;150700.66;4971571;28;20466;-82
2024/01/15 02:23:10;;;;;;;9.93;5.23;;;;;;;-2.64;100.00;150700.66;4974561;28;20552;-82
2024/01/15 02:25:37;;;;;;;9.73;5.50;;;;;;;-2.64;100.00;150700.66;4941124;28;20517;-82
2024/01/15 02:28:04;;;;;;;9.83;5.97;;;;;;;-2.65;100.00;150698.06;4985921;28;20538;-83
2024/01/15 02:30:32;;;;;;;9.60;5.47;;;;;;;-2.62;100.00;150705.75;4971184;28;20963;-81
2024/01/15 02:32:59;;;;;;;9.80;4.97;;;;;;;-2.62;100.00;150705.75;4969698;28;20466;-81
2024/01/15 02:35:25;;;;;;;10.90;5.43;;;;;;;-2.60;100.00;150709.63;4955773;28;20494;-82
2024/01/15 02:37:52;;;;;;;11.00;5.13;;;;;;;-2.61;100.00;150708.34;4959805;28;20868;-82
2024/01/15 02:40:19;;;;;;;7.93;4.97;;;;;;;-2.62;100.00;150704.53;4978761;28;20981;-82
2024/01/15 02:42:46;;;;;;;7.80;5.03;;;;;;;-2.64;100.00;150699.38;4972976;28;20464;-81
2024/01/15 02:45:13;;;;;;;8.20;4.77;;;;;;;-2.67;100.00;150692.97;4971352;28;20458;-82
2024/01/15 02:47:39;;;;;;;7.63;4.50;;;;;;;-2.69;100.00;150687.84;4962579;28;20791;-82
2024/01/15 02:50:07;;;;;;;8.00;4.70;;;;;;;-2.72;100.00;150678.88;4971322;28;20450;-82
2024/01/15 02:52:33;;;;;;;8.17;5.37;;;;;;;-2.75;100.00;150672.47;4965833;28;21070;-82
2024/01/15 02:55:00;;;;;;;9.10;5.47;;;;;;;-2.76;100.00;150668.66;4969946;28;20469;-82
2024/01/15 02:57:28;;;;;;;11.00;5.50;;;;;;;-2.79;100.00;150662.25;4968932;28;21007;-82
2024/01/15 02:59:54;;;;;;;10.63;5.40;;;;;;;-2.80;100.00;150659.69;4971294;28;20445;-82
2024/01/15 03:02:21;;;;;;;8.50;5.50;;;;;;;-2.83;100.00;150652.00;4988072;28;20878;-82
2024/01/15 03:04:47;;;;;;;12.20;5.70;;;;;;;-2.84;100.00;150648.19;4971291;28;20824;-82
2024/01/15 03:07:14;;;;;;;10.63;5.30;;;;;;;-2.88;100.00;150639.22;4964076;28;20428;-82
2024/01/15 03:09:41;;;;;;;8.60;4.93;;;;;;;-2.91;100.00;150630.28;4983103;28;20452;-82
2024/01/15 03:12:08;;;;;;;8.77;5.30;;;;;;;-2.93;100.00;150625.13;4969919;28;20457;-82
2024/01/15 03:14:36;;;;;;;10.80;5.27;;;;;;;-2.96;100.00;150618.72;4952742;28;20549;-82
2024/01/15 03:17:02;;;;;;;9.63;5.80;;;;;;;-2.96;100.00;150618.72;4972078;28;20478;-82
2024/01/15 03:19:30;;;;;;;10.47;5.20;;;;;;;-2.99;100.00;150611.03;4972589;28;20417;-82
2024/01/15 03:21:56;;;;;;;7.93;5.53;;;;;;;-3.01;100.00;150605.94;4969382;28;20804;-82
2024/01/15 03:24:23;;;;;;;8.43;5.20;;;;;;;-3.01;100.00;150605.94;4970181;28;20440;-82
2024/01/15 03:26:49;;;;;;;11.00;5.50;;;;;;;-3.01;100.00;150604.66;4980454;28;20463;-82
2024/01/15 03:29:16;;;;;;;9.70;5.30;;;;;;;-3.04;100.00;150597.00;4969771;28;20809;-82
2024/01/15 03:31:44;;;;;;;8.67;5.03;;;;;;;-3.08;100.00;150589.31;4970580;28;21289;-81
2024/01/15 03:34:11;;;;;;;7.80;5.30;;;;;;;-3.05;100.00;150595.72;4970784;28;20794;-83
2024/01/15 03:36:37;;;;;;;7.23;5.23;;;;;;;-3.07;100.00;150591.84;4962848;28;20497;-83
2024/01/15 03:39:04;;;;;;;14.80;6.37;;;;;;;-3.05;100.00;150595.72;4969608;28;20992;-82
2024/01/15 03:41:30;;;;;;;8.33;5.87;;;;;;;-3.04;100.00;150598.25;4965306;28;20486;-82
2024/01/15 03:43:58;;;;;;;9.87;5.57;;;;;;;-3.03;100.00;150599.53;4967175;28;20432;-82
2024/01/15 03:46:24;;;;;;;10.37;5.90;;;;;;;-3.02;100.00;150603.41;4984074;28;20447;-82
2024/01/15 03:48:52;;;;;;;8.30;4.07;;;;;;;-3.00;100.00;150607.22;4969558;28;20447;-82
2024/01/15 03:51:19;;;;;;;9.20;5.63;;;;;;;-2.98;100.00;150613.63;4971319;28;20459;-82
2024/01/15 03:53:46;;;;;;;8.50;5.10;;;;;;;-2.95;100.00;150620.00;4965549;28;20458;-82
2024/01/15 03:56:13;;;;;;;7.60;5.30;;;;;;;-2.94;100.00;150622.59;4982308;28;20462;-82
2024/01/15 03:58:39;;;;;;;8.17;5.67;;;;;;;-2.91;100.00;150631.53;4969236;28;20478;-82
2024/01/15 04:01:08;;;;;;;8.43;6.10;;;;;;;-2.87;100.00;150640.50;4977596;28;20446;-82
2024/01/15 04:03:35;;;;;;;11.43;5.57;;;;;;;-2.86;100.00;150644.31;4968553;28;20810;-82
2024/01/15 04:06:03;;;;;;;11.03;5.07;;;;;;;-2.84;100.00;150649.47;4969287;28;20470;-82
2024/01/15 04:08:30;;;;;;;9.07;4.47;;;;;;;-2.81;100.00;150657.16;4970667;28;20445;-82
2024/01/15 04:10:56;;;;;;;9.93;4.67;;;;;;;-2.80;100.00;150659.69;4969233;28;20489;-82
2024/01/15 04:13:23;;;;;;;8.60;5.63;;;;;;;-2.77;100.00;150666.09;4982257;28;20816;-82
2024/01/15 04:15:50;;;;;;;9.03;4.97;;;;;;;-2.75;100.00;150671.19;4993529;28;20688;-82
2024/01/15 04:18:17;;;;;;;8.77;5.27;;;;;;;-2.75;100.00;150671.19;4968306;28;20917;-82
2024/01/15 04:20:44;;;;;;;7.90;4.63;;;;;;;-2.72;100.00;150680.16;4985121;28;20452;-82
2024/01/15 04:23:11;;;;;;;8.70;5.00;;;;;;;-2.70;100.00;150684.03;4984734;28;20895;-82
2024/01/15 04:25:41;;;;;;;6.90;4.43;;;;;;;-2.68;100.00;150690.44;4970585;28;20469;-82
2024/01/15 04:28:07;;;;;;;7.60;4.30;;;;;;;-2.65;100.00;150696.84;4967120;28;20466;-81
2024/01/15 04:30:34;;;;;;;9.50;5.00;;;;;;;-2.63;100.00;150701.94;4967853;28;20455;-82
2024/01/15 04:33:00;;;;;;;8.70;4.63;;;;;;;-2.57;100.00;150717.31;4968252;28;20537;-82
2024/01/15 04:35:27;;;;;;;10.33;4.57;;;;;;;-2.55;100.00;150723.72;4970176;28;20453;-82
2024/01/15 04:37:53;;;;;;;9.83;5.23;;;;;;;-2.48;100.00;150740.34;4967795;28;20486;-82
2024/01/15 04:40:21;;;;;;;12.90;5.90;;;;;;;-2.44;100.00;150750.59;4964342;28;20889;-81
2024/01/15 04:42:48;;;;;;;7.93;5.10;;;;;;;-2.41;100.00;150757.00;4970967;28;20465;-82
2024/01/15 04:45:14;;;;;;;9.20;5.63;;;;;;;-2.39;100.00;150763.41;4978018;28;20470;-82
2024/01/15 04:47:42;;;;;;;10.07;5.57;;;;;;;-2.36;100.00;150769.81;4967913;28;20458;-82
2024/01/15 04:50:09;;;;;;;10.67;5.90;;;;;;;-2.36;100.00;150769.81;4962949;28;20491;-81
2024/01/15 04:52:35;;;;;;;9.70;5.77;;;;;;;-2.34;100.00;150774.91;4965297;28;20801;-82
2024/01/15 04:55:02;;;;;;;10.43;5.30;;;;;;;-2.31;100.00;150782.59;4968091;28;20949;-82
2024/01/15 04:57:30;;;;;;;6.23;3.90;;;;;;;-2.30;100.00;150786.41;4969412;28;20490;-82
2024/01/15 04:59:56;;;;;;;10.83;5.07;;;;;;;-2.27;100.00;150794.13;4977624;28;20981;-81
2024/01/15 05:02:23;;;;;;;11.07;6.37;;;;;;;-2.25;100.00;150797.97;4981697;28;20895;-81
2024/01/15 05:04:49;;;;;;;6.80;4.07;;;;;;;-2.25;100.00;150797.97;4978509;28;20921;-82
2024/01/15 05:07:16;;;;;;;9.47;5.43;;;;;;;-2.25;100.00;150799.22;4982550;28;20470;-82
2024/01/15 05:09:43;;;;;;;9.17;5.33;;;;;;;-2.23;100.00;150803.09;4984825;28;20534;-82
2024/01/15 05:12:10;;;;;;;7.30;4.73;;;;;;;-2.20;100.00;150810.78;4968050;28;20473;-82
2024/01/15 05:14:37;;;;;;;7.43;3.83;;;;;;;-2.17;100.00;150818.47;4949450;28;20469;-82
2024/01/15 05:17:04;;;;;;;11.27;5.00;;;;;;;-2.14;100.00;150826.13;4987383;28;20441;-81
2024/01/15 05:19:31;;;;;;;8.40;4.43;;;;;;;-2.15;100.00;150823.59;4968891;28;20464;-82
2024/01/15 05:21:57;;;;;;;7.23;4.57;;;;;;;-2.15;100.00;150823.59;4967463;28;20466;-82
2024/01/15 05:24:26;;;;;;;9.10;5.37;;;;;;;-2.12;100.00;150831.28;4968000;28;20449;-82
2024/01/15 05:26:52;;;;;;;10.80;5.70;;;;;;;-2.13;100.00;150828.69;4969447;28;20450;-82
2024/01/15 05:29:19;;;;;;;8.80;5.00;;;;;;;-2.14;100.00;150827.41;4984193;28;20438;-82
2024/01/15 05:31:47;;;;;;;7.10;4.93;;;;;;;-2.11;100.00;150833.81;4968578;28;20446;-82
2024/01/15 05:34:14;;;;;;;7.70;4.53;;;;;;;-2.11;100.00;150835.09;4985278;28;20466;-82
2024/01/15 05:36:40;;;;;;;8.27;5.17;;;;;;;-2.10;100.00;150836.38;4951541;28;20846;-82
2024/01/15 05:39:07;;;;;;;7.23;5.00;;;;;;;-2.08;100.00;150841.50;4984329;28;20494;-82
2024/01/15 05:41:33;;;;;;;7.30;4.73;;;;;;;-2.08;100.00;150842.78;4967482;28;20532;-82
2024/01/15 05:44:00;;;;;;;8.53;5.40;;;;;;;-2.04;100.00;150851.78;4968820;28;20537;-82
2024/01/15 05:46:26;;;;;;;9.93;5.47;;;;;;;-2.04;100.00;150851.78;4969450;28;20478;-83
2024/01/15 05:48:55;;;;;;;6.87;5.23;;;;;;;-2.03;100.00;150854.31;4984829;28;20462;-82
2024/01/15 05:51:22;;;;;;;12.77;4.53;;;;;;;-2.02;100.00;150856.88;4984978;28;20466;-82
2024/01/15 05:53:49;;;;;;;9.90;4.70;;;;;;;-2.03;100.00;150855.59;4984105;28;20501;-82
2024/01/15 05:56:16;;;;;;;13.27;6.40;;;;;;;-2.03;100.00;150854.31;4963068;28;20467;-82
2024/01/15 05:58:42;;;;;;;14.40;6.53;;;;;;;-2.01;100.00;150859.41;4967073;28;20474;-82
2024/01/15 06:01:09;;;;;;;7.77;5.30;;;;;;;-2.01;100.00;150860.69;4972535;28;20466;-82
2024/01/15 06:03:35;;;;;;;13.57;6.53;;;;;;;-2.01;100.00;150859.41;4970062;28;20458;-82
2024/01/15 06:06:03;;;;;;;11.80;6.53;;;;;;;-1.97;100.00;150869.69;4990982;28;20573;-82
2024/01/15 06:08:30;;;;;;;11.10;5.70;;;;;;;-1.98;100.00;150867.09;4968400;28;20462;-81
2024/01/15 06:10:57;;;;;;;10.30;6.30;;;;;;;-1.96;100.00;150872.25;4973039;28;20450;-81
2024/01/15 06:13:23;;;;;;;10.60;5.40;;;;;;;-1.94;100.00;150877.38;4989517;28;20458;-80
2024/01/15 06:15:50;;;;;;;11.20;6.47;;;;;;;-1.96;100.00;150872.25;4975586;28;20446;-81
2024/01/15 06:18:16;;;;;;;12.03;7.00;;;;;;;-1.96;100.00;150872.25;4975997;28;20482;-81
2024/01/15 06:20:43;;;;;;;10.80;6.23;;;;;;;-1.97;100.00;150870.97;4961138;28;20547;-81
2024/01/15 06:23:11;;;;;;;10.40;6.47;;;;;;;-1.99;100.00;150864.56;4990443;28;20454;-80
2024/01/15 06:25:38;;;;;;;11.40;6.93;;;;;;;-2.01;100.00;150860.69;4973362;28;20450;-81
2024/01/15 06:28:05;;;;;;;12.20;5.47;;;;;;;-1.99;100.00;150864.56;4978161;28;20569;-81
2024/01/15 06:30:32;;;;;;;10.20;5.87;;;;;;;-1.99;100.00;150864.56;4973128;28;20453;-81
2024/01/15 06:32:58;;;;;;;11.13;7.10;;;;;;;-1.98;100.00;150867.09;4977314;28;20470;-81
2024/01/15 06:35:25;;;;;;;9.50;6.00;;;;;;;-1.97;100.00;150869.69;4976226;28;20457;-81
2024/01/15 06:37:52;;;;;;;10.07;5.80;;;;;;;-1.96;100.00;150872.25;4988623;28;20459;-81
2024/01/15 06:40:19;;;;;;;12.07;6.10;;;;;;;-1.95;100.00;150874.78;4989426;28;20490;-81
2024/01/15 06:42:46;;;;;;;11.60;6.63;;;;;;;-1.96;100.00;150872.25;4975266;28;20881;-85
2024/01/15 06:45:13;;;;;;;12.50;6.20;;;;;;;-1.96;100.00;150872.25;4956764;28;20822;-85
2024/01/15 06:47:40;;;;;;;10.27;6.03;;;;;;;-1.97;100.00;150870.97;4943529;28;20465;-85
2024/01/15 06:50:07;;;;;;;10.93;5.70;;;;;;;-1.96;100.00;150873.50;4971174;28;20521;-85
2024/01/15 06:52:33;;;;;;;12.73;6.67;;;;;;;-1.96;100.00;150872.25;4986427;28;20470;-85
2024/01/15 06:55:00;;;;;;;10.70;6.43;;;;;;;-1.97;100.00;150869.69;4987473;28;20446;-85
2024/01/15 06:57:28;;;;;;;12.63;6.37;;;;;;;-1.96;100.00;150873.50;4970142;28;20465;-85
2024/01/15 06:59:55;;;;;;;8.60;5.40;;;;;;;-1.94;100.00;150878.66;4973416;28;20511;-84
2024/01/15 07:02:22;;;;;;;12.13;6.63;;;;;;;-1.92;100.00;150882.50;4977974;28;20461;-85
2024/01/15 07:04:49;;;;;;;9.10;5.70;;;;;;;-1.89;100.00;150891.47;4961607;28;20944;-85
2024/01/15 07:07:15;;;;;;;8.70;5.33;;;;;;;-1.89;100.00;150890.19;4978580;28;20470;-85
2024/01/15 07:09:42;;;;;;;8.47;4.87;;;;;;;-1.89;100.00;150890.19;4991389;28;20473;-85
2024/01/15 07:12:09;;;;;;;13.73;6.37;;;;;;;-1.87;100.00;150895.28;4978728;28;20605;-86
2024/01/15 07:14:37;;;;;;;7.23;5.80;;;;;;;-1.88;100.00;150892.75;4977587;28;20465;-85
2024/01/15 07:17:04;;;;;;;8.13;5.10;;;;;;;-1.85;100.00;150901.69;4976004;28;20465;-86
2024/01/15 07:19:31;;;;;;;10.33;5.23;;;;;;;-1.83;100.00;150905.56;4989899;28;20471;-86
2024/01/15 07:21:58;;;;;;;11.10;6.13;;;;;;;-1.81;100.00;150910.69;4976622;28;20505;-85
2024/01/15 07:24:24;;;;;;;8.93;5.70;;;;;;;-1.79;100.00;150914.50;4961972;28;21015;-84
2024/01/15 07:26:51;;;;;;;8.97;5.83;;;;;;;-1.79;100.00;150915.78;4960823;28;20461;-86
2024/01/15 07:29:18;;;;;;;7.60;5.50;;;;;;;-1.77;100.00;150919.66;4966281;28;20457;-86
2024/01/15 07:31:50;;;;;;;7.30;5.83;;;;;;;-1.75;100.00;150926.06;4976833;28;20509;-86
2024/01/15 07:34:17;;;;;;;8.17;5.53;;;;;;;-1.74;100.00;150928.59;4963884;28;20548;-86
2024/01/15 07:36:45;;;;;;;9.70;5.93;;;;;;;-1.71;100.00;150935.00;4944042;28;20455;-86
2024/01/15 07:39:11;;;;;;;9.60;6.07;;;;;;;-1.74;100.00;150928.59;4975552;28;20490;-86
2024/01/15 07:41:38;;;;;;;7.60;4.83;;;;;;;-1.73;100.00;150931.19;4974036;28;20481;-86
2024/01/15 07:44:06;;;;;;;9.27;5.87;;;;;;;-1.71;100.00;150936.28;4966460;28;20502;-86
2024/01/15 07:46:32;;;;;;;11.63;6.00;;;;;;;-1.67;100.00;150946.56;4979913;28;20465;-86
2024/01/15 07:49:01;;;;;;;9.67;5.67;;;;;;;-1.66;100.00;150947.81;4972558;28;20461;-86
2024/01/15 07:51:31;;;;;;;10.50;6.10;;;;;;;-1.65;100.00;150950.41;4968750;28;20461;-86
2024/01/15 07:53:58;;;;;;;11.07;5.90;;;;;;;-1.65;100.00;150951.69;4976804;28;20454;-85
2024/01/15 07:56:24;;;;;;;8.80;5.23;;;;;;;-1.66;100.00;150949.09;4966172;28;20449;-86
2024/01/15 07:58:51;;;;;;;9.83;6.00;;;;;;;-1.65;100.00;150951.69;4977480;28;20469;-85
2024/01/15 08:01:18;;;;;;;8.67;5.80;;;;;;;-1.63;100.00;150956.78;4961623;28;20454;-85
2024/01/15 08:03:44;;;;;;;8.60;5.57;;;;;;;-1.62;100.00;150958.09;4959943;28;20454;-85
2024/01/15 08:06:12;;;;;;;8.10;5.20;;;;;;;-1.60;100.00;150963.19;4960349;28;20451;-85
2024/01/15 08:08:39;;;;;;;9.50;5.73;;;;;;;-1.59;100.00;150967.03;4965185;28;20482;-85
2024/01/15 08:11:06;;;;;;;7.60;4.67;;;;;;;-1.57;100.00;150972.19;4975122;28;21052;-85
2024/01/15 08:13:32;;;;;;;7.30;5.00;;;;;;;-1.56;100.00;150974.72;4975047;28;20473;-86
2024/01/15 08:15:59;;;;;;;9.10;5.40;;;;;;;-1.54;100.00;150979.88;4961647;28;20827;-85
2024/01/15 08:18:26;;;;;;;10.10;6.10;;;;;;;-1.52;100.00;150983.72;4964659;28;20463;-85
2024/01/15 08:20:53;;;;;;;7.97;5.77;;;;;;;-1.50;100.00;150990.09;4974789;28;20443;-86
2024/01/15 08:23:21;;;;;;;10.00;5.60;;;;;;;-1.48;100.00;150993.94;4962008;28;20809;-86
2024/01/15 08:25:48;;;;;;;8.00;4.73;;;;;;;-1.46;100.00;151000.38;4947887;28;20466;-84
2024/01/15 08:28:15;;;;;;;8.50;4.83;;;;;;;-1.44;100.00;151005.50;4964587;28;20466;-84
2024/01/15 08:30:41;;;;;;;8.30;4.87;;;;;;;-1.46;100.00;151000.38;4974636;28;20549;-85
2024/01/15 08:33:08;;;;;;;7.90;4.90;;;;;;;-1.45;100.00;151002.91;4961214;28;20500;-85
2024/01/15 08:35:35;;;;;;;11.03;5.30;;;;;;;-1.45;100.00;151002.91;4990479;28;20455;-85
2024/01/15 08:38:02;;;;;;;7.87;5.03;;;;;;;-1.44;100.00;151005.50;4978247;28;21118;-85
2024/01/15 08:40:30;;;;;;;9.10;5.13;;;;;;;-1.41;100.00;151013.19;4976971;28;20481;-85
2024/01/15 08:42:59;;;;;;;7.50;4.83;;;;;;;-1.38;100.00;151019.59;4948746;28;20931;-85
2024/01/15 08:45:26;;;;;;;8.23;4.90;;;;;;;-1.36;100.00;151026.00;4961794;28;20454;-84
2024/01/15 08:47:52;;;;;;;6.83;4.43;;;;;;;-1.35;100.00;151028.53;4978374;28;20469;-84
2024/01/15 08:50:19;;;;;;;6.77;4.50;;;;;;;-1.34;100.00;151031.13;4972473;28;20472;-86
2024/01/15 08:52:46;;;;;;;9.23;5.13;;;;;;;-1.30;100.00;151040.13;4979979;28;20573;-87
2024/01/15 08:55:13;;;;;;;6.80;4.50;;;;;;;-1.28;100.00;151045.22;4989712;28;20455;-86
2024/01/15 08:57:41;;;;;;;7.00;4.80;;;;;;;-1.27;100.00;151049.06;4965535;28;20876;-86
2024/01/15 09:00:09;;;;;;;8.47;4.40;;;;;;;-1.25;100.00;151054.22;4977487;28;20484;-86
2024/01/15 09:02:36;;;;;;;5.93;4.30;;;;;;;-1.22;100.00;151060.63;4993333;28;20458;-87
2024/01/15 09:05:04;;;;;;;7.67;4.97;;;;;;;-1.22;100.00;151061.88;4963478;28;20463;-86
2024/01/15 09:07:30;;;;;;;7.30;4.73;;;;;;;-1.16;100.00;151074.66;4962394;28;20483;-87
2024/01/15 09:09:59;;;;;;;9.00;5.00;;;;;;;-1.15;100.00;151077.25;4954825;28;20825;-87
2024/01/15 09:12:26;;;;;;;6.60;4.27;;;;;;;-1.13;100.00;151082.38;4963929;28;20501;-86
2024/01/15 09:14:55;;;;;;;5.63;4.10;;;;;;;-1.09;100.00;151092.66;4979260;28;20461;-86
2024/01/15 09:17:23;;;;;;;6.80;3.83;;;;;;;-1.08;100.00;151096.47;4943179;28;20988;-86
2024/01/15 09:19:50;;;;;;;6.90;4.33;;;;;;;-1.07;100.00;151097.78;4961472;28;20485;-85
2024/01/15 09:22:18;;;;;;;7.30;3.87;;;;;;;-1.05;100.00;151104.19;4959424;28;20458;-84
2024/01/15 09:24:45;;;;;;;6.57;3.63;;;;;;;-1.05;100.00;151102.88;4964979;28;20463;-85
2024/01/15 09:27:12;;;;;;;5.93;3.93;;;;;;;-1.00;100.00;151115.69;4982141;28;21035;-84
2024/01/15 09:30:22;;;;;;;3.90;2.77;;;;;;;-0.96;100.00;151125.97;4962585;28;20458;-86
2024/01/15 09:32:49;;;;;;;5.70;3.83;;;;;;;-0.92;100.00;151136.22;4949846;28;21098;-86
2024/01/15 09:35:16;;;;;;;8.13;3.80;;;;;;;-0.86;100.00;151152.91;4979548;28;20807;-86
2024/01/15 09:37:48;;;;;;;4.30;3.27;;;;;;;-0.85;100.00;151154.19;4995459;23;20482;-85
2024/01/15 09:40:21;;;;;;;5.70;3.30;;;;;;;-0.83;100.00;151159.31;4911686;23;20536;-86
2024/01/15 09:42:48;;;;;;;5.43;4.23;;;;;;;-0.80;100.00;151167.00;4977502;28;20457;-86
2024/01/15 09:45:16;;;;;;;6.70;3.30;;;;;;;-0.76;100.00;151178.53;4971530;28;20461;-86
2024/01/15 09:47:43;;;;;;;5.37;3.30;;;;;;;-0.72;100.00;151187.53;4974877;28;20483;-85
2024/01/15 09:50:10;;;;;;;4.00;3.30;;;;;;;-0.68;100.00;151197.78;4965437;28;20462;-85
2024/01/15 09:52:37;;;;;;;4.13;3.03;;;;;;;-0.67;100.00;151201.66;4964038;28;20535;-85
2024/01/15 09:55:05;;;;;;;7.60;3.83;;;;;;;-0.62;100.00;151214.47;4977805;28;20458;-85
2024/01/15 09:57:32;;;;;;;4.97;3.20;;;;;;;-0.62;100.00;151213.19;4975169;28;20451;-85
2024/01/15 10:00:00;;;;;;;6.37;3.17;;;;;;;-0.62;100.00;151214.47;4959788;28;20469;-85
2024/01/15 10:02:30;;;;;;;6.43;3.20;;;;;;;-0.54;100.00;151233.69;4953199;28;20481;-86
2024/01/15 10:04:56;;;;;;;5.17;3.00;;;;;;;-0.53;100.00;151236.22;4965079;28;20449;-86
2024/01/15 10:07:24;;;;;;;4.30;3.07;;;;;;;-0.51;100.00;151241.41;4963710;28;20473;-86
2024/01/15 10:09:51;;;;;;;7.33;3.60;;;;;;;-0.48;100.00;151247.81;4979462;23;20852;-80
2024/01/15 10:12:21;;;;;;;4.17;3.00;;;;;;;-0.49;100.00;151246.53;4976274;28;21004;-80
2024/01/15 10:14:49;;;;;;;4.30;2.97;;;;;;;-0.47;100.00;151250.34;4949746;28;20484;-80
2024/01/15 10:17:17;;;;;;;5.90;3.80;;;;;;;-0.46;100.00;151254.22;4961742;28;20487;-79
2024/01/15 10:19:46;;;;;;;5.10;3.53;;;;;;;-0.41;100.00;151265.75;4962936;28;20613;-80
2024/01/15 10:22:14;;;;;;;8.90;4.10;;;;;;;-0.41;100.00;151267.03;4977978;28;20600;-80
2024/01/15 10:24:41;;;;;;;5.00;3.40;;;;;;;-0.39;100.00;151272.16;4964034;28;20481;-79
2024/01/15 10:27:08;;;;;;;8.87;4.10;;;;;;;-0.40;100.00;151269.63;4978750;28;20492;-79
2024/01/15 10:29:35;;;;;;;6.10;3.70;;;;;;;-0.37;100.00;151276.03;4962325;28;20461;-79
2024/01/15 10:32:08;;;;;;;5.47;3.03;;;;;;;-0.34;100.00;151283.69;4978057;28;20797;-79
2024/01/15 10:34:34;;;;;;;4.73;3.57;;;;;;;-0.33;100.00;151287.56;4979620;28;20894;-80
2024/01/15 10:37:05;;;;;;;5.40;3.80;;;;;;;-0.31;100.00;151292.69;4962056;28;20987;-80
2024/01/15 10:39:32;;;;;;;4.73;3.67;;;;;;;-0.31;100.00;151291.41;4977845;28;20849;-80
2024/01/15 10:41:58;;;;;;;5.27;3.90;;;;;;;-0.29;100.00;151297.81;4964869;28;20458;-80
2024/01/15 10:44:25;;;;;;;5.37;3.77;;;;;;;-0.27;100.00;151302.97;4982277;28;20814;-79
2024/01/15 10:46:52;;;;;;;6.50;3.90;;;;;;;-0.25;100.00;151306.81;4982812;28;20473;-79
2024/01/15 10:49:20;;;;;;;6.30;3.70;;;;;;;-0.26;100.00;151305.50;4967977;28;20460;-79
2024/01/15 10:51:47;;;;;;;8.17;4.30;;;;;;;-0.24;100.00;151310.63;4965166;28;20469;-79
2024/01/15 10:54:15;;;;;;;7.10;3.73;;;;;;;-0.23;100.00;151313.22;4981295;28;20481;-79
2024/01/15 10:56:42;;;;;;;8.23;4.07;;;;;;;-0.22;100.00;151315.81;4963902;28;20465;-79
2024/01/15 10:59:10;;;;;;;5.60;3.60;;;;;;;-0.18;100.00;151326.03;4969102;28;20812;-79
2024/01/15 11:01:37;;;;;;;6.40;4.00;;;;;;;-0.15;100.00;151333.75;4977704;28;20453;-79
2024/01/15 11:04:04;;;;;;;9.20;4.53;;;;;;;-0.12;100.00;151341.44;4972181;28;20494;-79
2024/01/15 11:06:42;;;;;;;6.63;4.10;;;;;;;-0.09;100.00;151349.16;4989675;28;20463;-79
2024/01/15 11:09:09;;;;;;;7.43;4.70;;;;;;;-0.05;100.00;151358.09;4982713;28;20503;-79
2024/01/15 11:11:41;;;;;;;5.80;3.87;;;;;;;-0.04;100.00;151360.69;4962293;28;20492;-80
2024/01/15 11:14:08;;;;;;;5.30;3.83;;;;;;;0.00;100.00;151372.22;4981063;28;20464;-80